Time;durP1;ratioP1;P1;durP2;ratioP2;P2;SDS_P1;SDS_P2;PMS_P1;PMS_P2;Temp;Humidity;BMP_temperature;BMP_pressure;BME280_temperature;BME280_humidity;BME280_pressure;Samples;Min_cycle;Max_cycle;Signal;HPM_P1;HPM_P2
2021/06/22 00:01:31;;;;;;;42.90;7.80;;;;;;;40.41;62.66;160017.47;1715856;82;21227;-87
2021/06/22 00:04:04;;;;;;;53.95;8.93;;;;;;;40.39;62.25;160714.91;1726025;83;21223;-87
2021/06/22 00:06:36;;;;;;;32.70;8.18;;;;;;;40.33;62.10;160907.25;1717132;83;21264;-86
2021/06/22 00:09:09;;;;;;;38.17;7.40;;;;;;;40.32;61.82;161328.75;1735724;81;21821;-86
2021/06/22 00:11:41;;;;;;;37.28;7.10;;;;;;;40.32;61.56;161589.72;1720497;82;21451;-86
2021/06/22 00:14:13;;;;;;;45.50;8.10;;;;;;;40.26;61.55;161582.41;1742593;82;21319;-85
2021/06/22 00:16:46;;;;;;;42.27;6.95;;;;;;;40.27;61.37;161755.75;1742466;81;21359;-87
2021/06/22 00:19:19;;;;;;;34.75;6.50;;;;;;;40.24;61.38;161734.48;1713633;83;21220;-88
2021/06/22 00:21:52;;;;;;;42.65;7.25;;;;;;;40.23;61.65;161561.23;1734124;83;21338;-86
2021/06/22 00:24:24;;;;;;;36.55;6.72;;;;;;;40.12;61.75;161419.64;1735980;81;21188;-85
2021/06/22 00:26:57;;;;;;;35.95;8.15;;;;;;;40.14;61.65;161560.47;1745883;81;21308;-86
2021/06/22 00:29:29;;;;;;;26.25;5.72;;;;;;;40.16;61.26;161787.48;1760750;81;21711;-87
2021/06/22 00:32:02;;;;;;;37.73;5.92;;;;;;;40.10;61.94;161296.14;1742833;81;21407;-88
2021/06/22 00:34:34;;;;;;;36.77;6.70;;;;;;;40.04;62.33;160771.58;1736086;81;21331;-86
2021/06/22 00:37:07;;;;;;;28.27;5.92;;;;;;;39.95;63.19;159387.14;1746742;82;21366;-87
2021/06/22 00:39:39;;;;;;;38.98;7.35;;;;;;;39.88;63.39;158998.89;1747162;82;21699;-87
2021/06/22 00:42:12;;;;;;;40.63;6.83;;;;;;;39.86;63.59;158759.39;1765228;81;21341;-87
2021/06/22 00:44:57;;;;;;;35.35;7.10;;;;;;;39.90;63.25;159553.28;1777658;81;21324;-87
2021/06/22 00:47:31;;;;;;;56.18;7.90;;;;;;;39.89;62.91;160136.05;1766400;81;21227;-87
2021/06/22 00:50:04;;;;;;;45.88;7.58;;;;;;;39.92;62.53;160751.42;1734797;81;21860;-88
2021/06/22 00:52:38;;;;;;;32.70;5.58;;;;;;;39.91;62.39;160976.00;1734558;81;21236;-88
2021/06/22 00:55:12;;;;;;;37.25;7.17;;;;;;;39.88;62.17;161246.08;1734965;81;21209;-86
2021/06/22 00:57:46;;;;;;;45.17;7.58;;;;;;;39.91;61.71;161703.00;1771470;81;21344;-86
2021/06/22 01:00:19;;;;;;;42.25;7.97;;;;;;;39.85;61.65;161702.91;1771012;81;21820;-87
2021/06/22 01:02:53;;;;;;;39.18;8.53;;;;;;;39.83;61.81;161563.42;1745027;81;21197;-88
2021/06/22 01:05:26;;;;;;;45.08;8.48;;;;;;;39.79;61.96;161399.88;1724345;81;21305;-85
2021/06/22 01:08:01;;;;;;;56.95;8.38;;;;;;;39.86;61.74;161644.41;1762748;81;21200;-86
2021/06/22 01:10:34;;;;;;;35.35;6.45;;;;;;;39.86;61.26;161706.97;1748195;81;21383;-85
2021/06/22 01:13:06;;;;;;;50.58;8.35;;;;;;;39.88;60.75;161710.97;1732845;81;21808;-86
2021/06/22 01:15:40;;;;;;;47.88;7.00;;;;;;;39.82;60.43;161694.84;1742727;81;21281;-87
2021/06/22 01:22:15;;;;;;;39.80;7.62;;;;;;;39.84;59.53;161701.59;1750280;81;21360;-84
2021/06/22 01:24:49;;;;;;;34.70;7.22;;;;;;;39.57;61.49;161629.16;1703248;84;21379;-87
2021/06/22 01:27:22;;;;;;;43.52;7.53;;;;;;;39.54;62.29;160954.37;1755823;81;21157;-85
2021/06/22 01:29:55;;;;;;;46.75;6.67;;;;;;;39.20;63.64;158496.72;1750794;81;21154;-85
2021/06/22 01:32:28;;;;;;;40.65;7.08;;;;;;;39.34;62.72;160598.06;1782561;80;21321;-86
2021/06/22 01:35:01;;;;;;;54.15;7.67;;;;;;;39.34;62.72;160598.06;1770358;80;21176;-87
2021/06/22 01:37:35;;;;;;;48.02;6.83;;;;;;;39.28;62.38;160983.75;1755665;80;21146;-86
2021/06/22 01:40:11;;;;;;;45.15;7.17;;;;;;;39.28;62.19;161263.19;1770799;81;21397;-86
2021/06/22 01:42:44;;;;;;;44.90;8.05;;;;;;;39.45;61.18;161595.61;1702283;82;21346;-88
2021/06/22 01:45:17;;;;;;;51.02;7.70;;;;;;;39.51;60.59;161611.72;1721907;83;21192;-86
2021/06/22 01:47:49;;;;;;;41.18;7.22;;;;;;;39.46;60.51;161598.30;1760250;80;21712;-86
2021/06/22 01:50:23;;;;;;;37.10;6.85;;;;;;;39.23;60.53;161536.62;1779058;80;21190;-86
2021/06/22 01:52:56;;;;;;;39.33;7.30;;;;;;;39.29;59.72;161554.05;1760301;80;21221;-86
2021/06/22 01:55:41;;;;;;;41.88;8.40;;;;;;;39.29;59.72;161554.05;1722152;82;21337;-86
2021/06/22 01:58:15;;;;;;;46.85;9.08;;;;;;;39.35;59.18;161570.13;1722199;83;21722;-86
2021/06/22 02:01:04;;;;;;;38.55;7.03;;;;;;;39.36;58.69;161572.81;1741368;81;21275;-86
2021/06/22 02:03:44;;;;;;;39.67;6.77;;;;;;;39.28;58.62;161550.00;1756750;81;21272;-86
2021/06/22 02:06:17;;;;;;;37.65;9.43;;;;;;;39.15;59.02;161515.12;1751243;82;21396;-85
2021/06/22 02:08:51;;;;;;;44.53;8.70;;;;;;;39.10;59.34;161503.08;1760240;81;21166;-85
2021/06/22 02:11:23;;;;;;;59.33;8.58;;;;;;;39.02;59.73;161480.22;1696212;80;21828;-86
2021/06/22 02:13:57;;;;;;;53.52;8.63;;;;;;;38.98;60.09;161470.84;1721890;83;21209;-87
2021/06/22 02:16:30;;;;;;;52.43;8.95;;;;;;;39.01;60.26;161478.91;1724383;80;21220;-86
2021/06/22 02:19:04;;;;;;;43.38;7.70;;;;;;;38.95;60.85;161462.78;1761385;80;21185;-86
2021/06/22 02:21:36;;;;;;;52.50;8.00;;;;;;;38.90;61.29;161448.05;1729276;80;21163;-87
2021/06/22 02:24:10;;;;;;;58.33;10.30;;;;;;;38.90;61.55;161448.05;1759995;80;21146;-87
2021/06/22 02:26:43;;;;;;;47.95;8.98;;;;;;;38.99;61.63;161472.22;1752176;80;21216;-86
2021/06/22 02:29:15;;;;;;;48.55;7.90;;;;;;;39.06;61.42;161490.97;1746418;80;21322;-85
2021/06/22 02:31:48;;;;;;;46.92;8.83;;;;;;;39.01;61.25;161478.91;1765415;81;21176;-85
2021/06/22 02:34:21;;;;;;;41.18;7.05;;;;;;;39.06;60.90;161492.28;1748352;81;21305;-88
2021/06/22 02:36:54;;;;;;;35.35;6.20;;;;;;;39.12;60.76;161508.44;1720003;82;21819;-85
2021/06/22 02:39:28;;;;;;;44.65;5.90;;;;;;;39.28;60.20;161550.00;1719763;82;21331;-85
2021/06/22 02:42:01;;;;;;;33.60;6.08;;;;;;;39.35;59.50;161568.80;1719796;82;21363;-88
2021/06/22 02:44:33;;;;;;;45.15;8.05;;;;;;;39.17;59.67;161520.50;1745436;82;21831;-86
2021/06/22 02:47:07;;;;;;;37.40;6.40;;;;;;;39.22;59.63;161533.94;1711657;82;21837;-87
2021/06/22 02:49:41;;;;;;;34.13;5.65;;;;;;;39.17;59.79;161521.88;1737374;81;21790;-90
2021/06/22 02:52:14;;;;;;;33.60;7.12;;;;;;;39.20;59.92;161529.88;1735619;80;21297;-94
2021/06/22 02:54:48;;;;;;;37.50;7.33;;;;;;;39.27;59.58;161548.69;1764996;80;21250;-94
2021/06/22 02:57:20;;;;;;;37.03;7.55;;;;;;;39.40;59.20;161582.17;1741102;81;21700;-92
2021/06/22 02:59:54;;;;;;;46.30;7.15;;;;;;;39.31;59.61;161558.06;1766752;80;21672;-90
2021/06/22 03:02:28;;;;;;;37.15;7.37;;;;;;;39.26;60.24;161544.63;1746298;80;21189;-91
2021/06/22 03:05:01;;;;;;;48.58;7.42;;;;;;;39.23;60.24;161537.94;1743275;80;21217;-90
2021/06/22 03:07:34;;;;;;;30.92;8.03;;;;;;;39.51;59.24;161613.09;1764362;80;21214;-90
2021/06/22 03:10:08;;;;;;;40.05;6.85;;;;;;;39.51;59.24;161613.09;1796749;79;21911;-90
2021/06/22 03:12:42;;;;;;;44.42;7.67;;;;;;;39.58;59.17;161631.84;1770321;80;21227;-91
2021/06/22 03:15:17;;;;;;;46.13;8.60;;;;;;;39.66;58.95;161653.28;1768619;80;21375;-90
2021/06/22 03:17:50;;;;;;;51.18;11.93;;;;;;;39.48;59.90;161604.98;1778491;80;21701;-91
2021/06/22 03:20:25;;;;;;;48.90;9.40;;;;;;;39.48;59.90;161604.98;1744412;80;21173;-90
2021/06/22 03:22:58;;;;;;;72.35;9.60;;;;;;;39.48;59.93;161603.63;1769149;80;21196;-93
2021/06/22 03:25:32;;;;;;;42.50;7.12;;;;;;;39.58;60.03;161630.53;1765291;80;21704;-93
2021/06/22 03:28:06;;;;;;;40.28;8.60;;;;;;;39.50;60.33;161610.41;1796388;80;21876;-90
2021/06/22 03:30:46;;;;;;;55.25;8.80;;;;;;;39.23;61.97;161162.59;1777728;79;21447;-89
2021/06/22 03:33:18;;;;;;;42.58;7.03;;;;;;;39.23;61.97;161162.59;1757484;81;21626;-88
2021/06/22 03:35:51;;;;;;;47.45;8.70;;;;;;;39.07;63.14;159273.94;1718828;82;21855;-89
2021/06/22 03:38:24;;;;;;;46.83;8.13;;;;;;;39.25;62.89;160253.97;1739729;82;21174;-90
2021/06/22 03:40:59;;;;;;;40.48;7.45;;;;;;;39.31;62.69;160504.34;1764376;81;21256;-89
2021/06/22 03:43:31;;;;;;;37.05;6.80;;;;;;;39.29;62.84;160292.38;1770143;81;21340;-90
2021/06/22 03:46:06;;;;;;;44.03;8.25;;;;;;;39.32;62.44;160816.84;1734672;81;21352;-90
2021/06/22 03:48:38;;;;;;;44.05;5.97;;;;;;;39.28;62.63;160603.92;1713591;81;21240;-90
2021/06/22 03:51:12;;;;;;;43.28;7.62;;;;;;;39.28;62.63;160603.92;1740174;81;21328;-91
2021/06/22 03:53:45;;;;;;;39.83;6.78;;;;;;;39.30;62.36;160997.92;1742406;81;21235;-91
2021/06/22 03:56:17;;;;;;;40.45;7.28;;;;;;;39.50;61.19;161608.98;1747847;81;21316;-88
2021/06/22 03:58:58;;;;;;;31.55;6.47;;;;;;;39.41;61.44;161586.19;1726288;81;21337;-90
2021/06/22 04:01:30;;;;;;;39.58;8.20;;;;;;;39.54;61.00;161621.09;1760228;81;21168;-88
2021/06/22 04:04:03;;;;;;;31.33;4.80;;;;;;;39.65;60.11;161649.28;1755428;81;21142;-86
2021/06/22 04:06:48;;;;;;;26.52;5.17;;;;;;;39.83;59.57;161697.53;1686374;81;21285;-88
2021/06/22 04:09:25;;;;;;;28.40;5.87;;;;;;;39.68;59.55;161658.66;1754150;81;21221;-89
2021/06/22 04:11:57;;;;;;;24.77;4.83;;;;;;;39.63;59.44;161645.28;1750759;81;21215;-92
2021/06/22 04:14:29;;;;;;;24.90;5.03;;;;;;;39.66;59.17;161653.28;1747150;81;21158;-88
2021/06/22 04:17:02;;;;;;;29.63;6.60;;;;;;;39.71;58.54;161665.34;1723149;81;21195;-79
2021/06/22 04:19:36;;;;;;;28.17;5.15;;;;;;;39.58;58.54;161630.53;1733741;81;21472;-86
2021/06/22 04:22:09;;;;;;;27.48;4.30;;;;;;;39.74;57.46;161674.78;1749973;79;21321;-85
2021/06/22 04:24:43;;;;;;;26.07;4.83;;;;;;;39.57;57.68;161627.84;1738125;80;21870;-86
2021/06/22 04:27:16;;;;;;;17.42;4.20;;;;;;;39.54;57.58;161621.09;1749554;81;21212;-86
2021/06/22 04:29:48;;;;;;;20.12;3.95;;;;;;;39.48;57.40;161604.98;1729611;81;21317;-86
2021/06/22 04:32:21;;;;;;;31.07;5.40;;;;;;;39.50;57.30;161608.98;1717290;81;21272;-82
2021/06/22 04:34:53;;;;;;;21.15;3.60;;;;;;;39.61;56.67;161639.91;1711595;82;21214;-82
2021/06/22 04:37:26;;;;;;;20.32;4.20;;;;;;;39.43;56.94;161590.23;1724890;81;21235;-84
2021/06/22 04:39:59;;;;;;;15.25;5.15;;;;;;;39.82;55.74;161694.84;1713714;81;21195;-87
2021/06/22 04:42:32;;;;;;;20.40;4.15;;;;;;;39.91;55.17;161719.03;1713880;81;21341;-87
2021/06/22 04:45:06;;;;;;;15.30;3.62;;;;;;;40.01;54.62;161747.22;1714760;81;21766;-91
2021/06/22 04:47:38;;;;;;;18.57;3.75;;;;;;;39.88;54.66;161710.97;1715088;81;21176;-92
2021/06/22 04:50:11;;;;;;;13.65;3.12;;;;;;;39.93;54.46;161724.47;1715129;81;21872;-87
2021/06/22 04:52:43;;;;;;;17.85;4.22;;;;;;;40.12;53.85;161776.73;1716749;81;21219;-86
2021/06/22 04:55:17;;;;;;;15.00;3.10;;;;;;;40.36;52.96;161842.55;1715340;81;21890;-86
2021/06/22 04:57:49;;;;;;;13.30;3.12;;;;;;;40.47;52.48;161872.06;1715325;81;21679;-84
2021/06/22 05:00:22;;;;;;;11.40;3.50;;;;;;;40.41;52.27;161855.94;1718039;82;21370;-85
2021/06/22 05:02:55;;;;;;;11.38;3.05;;;;;;;40.52;51.98;161884.13;1711602;81;21196;-83
2021/06/22 05:05:27;;;;;;;12.00;2.72;;;;;;;40.29;52.28;161823.69;1717278;81;21790;-83
2021/06/22 05:08:00;;;;;;;18.48;3.55;;;;;;;40.44;51.91;161864.00;1718663;81;21306;-80
2021/06/22 05:10:33;;;;;;;14.78;3.33;;;;;;;40.57;51.57;161897.58;1715664;82;21299;-86
2021/06/22 05:13:07;;;;;;;9.05;3.08;;;;;;;40.61;51.33;161908.28;1733175;81;21356;-82
2021/06/22 05:15:39;;;;;;;13.50;4.25;;;;;;;40.65;51.08;161920.34;1709787;81;21172;-83
2021/06/22 05:18:12;;;;;;;10.43;3.50;;;;;;;40.65;50.99;161920.34;1712500;81;21230;-83
2021/06/22 05:20:46;;;;;;;11.43;2.58;;;;;;;40.69;50.65;161931.09;1711209;81;21202;-82
2021/06/22 05:23:18;;;;;;;10.38;3.42;;;;;;;40.61;50.75;161909.66;1711185;81;21301;-82
2021/06/22 05:25:51;;;;;;;10.32;3.00;;;;;;;40.86;50.22;161975.44;1725753;81;21190;-82
2021/06/22 05:28:24;;;;;;;8.93;2.92;;;;;;;40.74;50.15;161944.59;1718682;81;21290;-82
2021/06/22 05:30:56;;;;;;;12.10;3.22;;;;;;;40.82;50.14;161964.69;1767898;81;21906;-84
2021/06/22 05:33:29;;;;;;;18.48;3.55;;;;;;;40.87;49.80;161979.44;1743834;81;21704;-83
2021/06/22 05:36:01;;;;;;;13.08;3.70;;;;;;;40.91;49.45;161990.19;1703272;81;21240;-83
2021/06/22 05:38:35;;;;;;;7.22;2.50;;;;;;;40.95;49.41;162000.95;1771694;81;21221;-82
2021/06/22 05:41:07;;;;;;;7.65;2.30;;;;;;;40.98;49.30;162008.97;1759667;81;21832;-82
2021/06/22 05:43:39;;;;;;;9.73;3.15;;;;;;;41.33;48.61;162102.98;1748571;81;21203;-83
2021/06/22 05:46:12;;;;;;;10.90;2.42;;;;;;;41.21;48.69;162070.75;1731208;82;21825;-82
2021/06/22 05:48:45;;;;;;;9.20;2.52;;;;;;;41.20;48.71;162068.13;1746093;82;21219;-83
2021/06/22 05:51:18;;;;;;;8.58;3.02;;;;;;;41.06;48.83;162030.48;1734891;81;21308;-83
2021/06/22 05:53:51;;;;;;;11.70;2.47;;;;;;;41.09;48.71;162039.86;1752062;81;22317;-82
2021/06/22 05:56:23;;;;;;;10.00;3.58;;;;;;;41.12;48.60;162046.56;1762306;81;21338;-82
2021/06/22 05:58:55;;;;;;;7.35;2.00;;;;;;;41.22;48.44;162074.81;1762636;81;21928;-83
2021/06/22 06:01:28;;;;;;;7.20;2.85;;;;;;;41.31;48.29;162098.97;1727628;82;21420;-84
2021/06/22 06:04:01;;;;;;;9.93;2.40;;;;;;;41.34;48.26;162105.67;1722587;82;21826;-82
2021/06/22 06:06:33;;;;;;;4.58;1.80;;;;;;;41.61;47.58;162178.23;1733024;81;21331;-83
2021/06/22 06:09:05;;;;;;;8.18;2.47;;;;;;;41.32;47.99;162101.66;1732532;83;21629;-82
2021/06/22 06:11:38;;;;;;;4.92;2.12;;;;;;;41.06;48.39;162030.48;1732220;83;21684;-82
2021/06/22 06:14:11;;;;;;;7.20;2.15;;;;;;;41.02;48.68;162019.72;1732592;81;21300;-83
2021/06/22 06:16:43;;;;;;;4.37;2.12;;;;;;;41.00;48.67;162015.72;1734160;81;21261;-82
2021/06/22 06:19:15;;;;;;;7.17;2.15;;;;;;;41.15;48.26;162056.00;1750507;81;21304;-84
2021/06/22 06:21:48;;;;;;;5.90;2.00;;;;;;;41.08;48.26;162037.17;1774557;81;21300;-84
2021/06/22 06:24:21;;;;;;;6.58;2.90;;;;;;;41.13;48.16;162050.62;1776427;81;21170;-83
2021/06/22 06:27:15;;;;;;;6.08;2.72;;;;;;;41.15;48.06;162054.69;1754624;80;21190;-82
2021/06/22 06:32:17;;;;;;;4.87;1.90;;;;;;;41.14;48.01;162053.31;1762318;81;21362;-83
2021/06/22 06:34:49;;;;;;;6.45;2.02;;;;;;;41.14;48.08;162051.94;1712941;83;21253;-82
2021/06/22 06:37:22;;;;;;;4.30;1.87;;;;;;;41.26;47.88;162085.53;1715282;81;21188;-82
2021/06/22 06:39:54;;;;;;;5.40;2.05;;;;;;;41.21;47.97;162070.75;1743983;81;21389;-83
2021/06/22 06:42:27;;;;;;;5.03;1.95;;;;;;;41.20;47.93;162069.44;1735515;81;21835;-83
2021/06/22 06:45:00;;;;;;;6.70;1.85;;;;;;;41.21;48.09;162070.75;1776662;81;21269;-83
2021/06/22 06:47:32;;;;;;;7.22;2.25;;;;;;;41.24;48.04;162078.83;1762532;81;21308;-84
2021/06/22 06:50:06;;;;;;;5.17;2.08;;;;;;;41.36;47.97;162111.05;1762213;81;21849;-83
2021/06/22 06:52:38;;;;;;;6.72;1.87;;;;;;;41.39;47.81;162120.44;1767785;81;21736;-84
2021/06/22 06:55:35;;;;;;;7.20;2.02;;;;;;;41.40;47.64;162123.12;1721091;81;21399;-83
2021/06/22 06:58:03;;;;;;;7.85;1.90;;;;;;;41.41;47.62;162125.81;1712431;81;21220;-83
2021/06/22 07:00:36;;;;;;;5.08;1.70;;;;;;;41.50;47.41;162149.97;1732287;83;21363;-82
2021/06/22 07:03:09;;;;;;;5.08;1.87;;;;;;;41.59;47.12;162172.86;1750938;80;21297;-83
2021/06/22 07:05:41;;;;;;;9.30;2.05;;;;;;;41.61;46.99;162179.56;1793783;80;21337;-83
2021/06/22 07:08:14;;;;;;;5.83;1.82;;;;;;;41.69;46.82;162199.70;1786921;80;21352;-83
2021/06/22 07:10:46;;;;;;;7.33;1.95;;;;;;;41.72;46.65;162207.78;1793976;80;21218;-82
2021/06/22 07:13:19;;;;;;;11.85;2.05;;;;;;;41.74;46.51;162214.47;1777561;80;21227;-83
2021/06/22 07:15:52;;;;;;;4.62;2.02;;;;;;;41.77;46.29;162221.22;1732917;80;21200;-83
2021/06/22 07:18:29;;;;;;;5.15;1.75;;;;;;;41.84;45.98;162241.38;1761193;80;21195;-84
2021/06/22 07:20:58;;;;;;;4.62;2.12;;;;;;;41.99;45.76;162283.05;1763847;80;21296;-82
2021/06/22 07:23:30;;;;;;;5.47;2.12;;;;;;;42.21;45.35;162340.77;1775080;80;21294;-82
2021/06/22 07:26:03;;;;;;;10.55;2.30;;;;;;;42.31;45.10;162367.63;1794124;80;21214;-84
2021/06/22 07:28:36;;;;;;;14.10;2.37;;;;;;;42.30;45.08;162366.31;1771174;80;21682;-83
2021/06/22 07:31:10;;;;;;;6.55;2.02;;;;;;;42.25;45.04;162352.84;1742190;82;21193;-81
2021/06/22 07:33:42;;;;;;;10.08;2.10;;;;;;;42.34;44.95;162375.69;1742363;82;21187;-81
2021/06/22 07:36:14;;;;;;;10.80;2.37;;;;;;;42.45;44.73;162405.30;1747868;82;21249;-82
2021/06/22 07:38:49;;;;;;;13.03;2.50;;;;;;;42.49;44.56;162417.38;1775153;80;21844;-82
2021/06/22 07:41:22;;;;;;;17.12;2.45;;;;;;;42.44;44.61;162402.61;1778730;80;21305;-83
2021/06/22 07:43:55;;;;;;;11.88;3.05;;;;;;;42.58;44.45;162441.61;1783833;79;21170;-81
2021/06/22 07:46:28;;;;;;;9.25;2.33;;;;;;;42.72;44.31;162477.86;1771916;79;21329;-80
2021/06/22 07:49:01;;;;;;;6.30;2.45;;;;;;;42.79;44.14;162498.08;1744948;81;21199;-83
2021/06/22 07:51:34;;;;;;;9.65;2.52;;;;;;;42.63;44.41;162455.02;1762488;80;21217;-84
2021/06/22 07:54:06;;;;;;;10.58;2.00;;;;;;;42.75;44.21;162487.31;1797922;79;21690;-82
2021/06/22 07:56:38;;;;;;;10.32;3.08;;;;;;;42.94;44.01;162538.41;1763900;79;21479;-82
2021/06/22 07:59:11;;;;;;;8.63;2.30;;;;;;;43.02;43.81;162559.89;1797807;79;21761;-83
2021/06/22 08:01:43;;;;;;;16.77;2.67;;;;;;;42.94;43.93;162538.41;1797458;80;21336;-82
2021/06/22 08:04:17;;;;;;;8.28;2.52;;;;;;;43.06;43.88;162571.97;1797900;79;21336;-82
2021/06/22 08:06:52;;;;;;;14.03;3.17;;;;;;;42.99;43.96;162553.19;1782443;80;21344;-88
2021/06/22 08:09:24;;;;;;;20.95;3.60;;;;;;;43.10;43.95;162581.37;1798262;79;21170;-82
2021/06/22 08:11:57;;;;;;;17.17;4.03;;;;;;;43.14;43.92;162592.19;1798419;80;21379;-81
2021/06/22 08:14:29;;;;;;;14.45;2.98;;;;;;;43.22;43.66;162615.06;1755029;80;21353;-83
2021/06/22 08:17:01;;;;;;;13.70;3.10;;;;;;;43.28;43.50;162629.84;1742267;81;21330;-82
2021/06/22 08:19:34;;;;;;;26.15;3.98;;;;;;;43.42;43.34;162667.42;1750608;80;21919;-82
2021/06/22 08:22:06;;;;;;;14.73;3.55;;;;;;;43.35;43.28;162648.63;1756810;80;21160;-82
2021/06/22 08:24:38;;;;;;;23.10;3.87;;;;;;;43.29;43.32;162632.53;1749159;80;21403;-83
2021/06/22 08:27:10;;;;;;;21.33;3.45;;;;;;;43.32;43.15;162640.55;1793804;80;21328;-82
2021/06/22 08:29:43;;;;;;;22.73;4.42;;;;;;;43.37;43.03;162654.02;1797513;79;21343;-82
2021/06/22 08:32:15;;;;;;;23.67;4.10;;;;;;;43.44;42.96;162674.19;1794689;80;21210;-82
2021/06/22 08:34:47;;;;;;;21.48;3.90;;;;;;;43.63;42.67;162723.98;1795085;80;21266;-83
2021/06/22 08:37:20;;;;;;;22.02;3.58;;;;;;;43.50;42.83;162690.34;1749758;80;21197;-83
2021/06/22 08:39:52;;;;;;;22.00;4.15;;;;;;;43.52;42.91;162694.41;1724784;81;21342;-83
2021/06/22 08:42:24;;;;;;;27.55;4.70;;;;;;;43.62;42.68;162722.61;1744015;82;21333;-82
2021/06/22 08:44:57;;;;;;;28.67;5.33;;;;;;;43.51;42.58;162691.72;1758147;80;21253;-83
2021/06/22 08:47:29;;;;;;;35.98;5.33;;;;;;;43.40;42.73;162662.09;1738411;80;21837;-83
2021/06/22 08:50:02;;;;;;;26.25;4.47;;;;;;;43.48;42.66;162684.91;1736476;82;21424;-82
2021/06/22 08:52:35;;;;;;;29.45;4.85;;;;;;;43.50;42.65;162688.97;1777136;79;21594;-81
2021/06/22 08:55:25;;;;;;;30.80;5.03;;;;;;;43.55;42.77;162702.44;1756678;80;21395;-81
2021/06/22 08:57:45;;;;;;;38.17;5.80;;;;;;;43.60;42.76;162715.91;1749269;80;22353;-82
2021/06/22 09:00:17;;;;;;;35.52;6.08;;;;;;;43.65;42.57;162729.31;1796953;80;21356;-82
2021/06/22 09:03:13;;;;;;;36.00;6.03;;;;;;;43.81;42.03;162772.36;1767774;80;21346;-87
2021/06/22 09:05:48;;;;;;;27.22;5.35;;;;;;;43.96;41.58;162814.08;1769811;80;21357;-85
2021/06/22 09:08:29;;;;;;;43.15;7.12;;;;;;;44.10;41.35;162851.73;1781201;80;21845;-83
2021/06/22 09:11:15;;;;;;;31.30;4.78;;;;;;;44.13;41.28;162861.14;1784208;79;21297;-82
2021/06/22 09:14:01;;;;;;;31.80;4.80;;;;;;;44.23;41.09;162886.70;1790102;80;21170;-82
2021/06/22 09:16:33;;;;;;;37.40;6.87;;;;;;;44.23;41.04;162888.03;1749091;82;21902;-82
2021/06/22 09:19:11;;;;;;;26.68;5.92;;;;;;;44.19;41.12;162877.31;1748639;80;21336;-83
2021/06/22 09:21:46;;;;;;;49.63;6.08;;;;;;;44.24;40.96;162890.72;1748906;82;21353;-87
2021/06/22 09:24:24;;;;;;;33.48;5.50;;;;;;;44.26;40.85;162896.16;1793645;80;21375;-84
2021/06/22 09:26:59;;;;;;;40.48;6.62;;;;;;;44.17;40.94;162871.91;1779725;80;21350;-84
2021/06/22 09:29:31;;;;;;;58.98;8.25;;;;;;;44.29;40.84;162904.25;1783838;80;21348;-85
2021/06/22 09:32:04;;;;;;;51.92;7.00;;;;;;;44.33;40.57;162914.97;1763934;80;21364;-85
2021/06/22 09:34:37;;;;;;;36.60;5.80;;;;;;;44.38;40.23;162927.13;1779844;79;21692;-85
2021/06/22 09:37:09;;;;;;;35.98;7.15;;;;;;;44.39;40.13;162931.14;1765310;81;21366;-85
2021/06/22 09:39:42;;;;;;;49.93;6.50;;;;;;;44.37;40.16;162924.44;1745312;80;22074;-85
2021/06/22 09:42:14;;;;;;;48.78;6.80;;;;;;;44.44;39.88;162943.23;1722611;80;21214;-84
2021/06/22 09:44:47;;;;;;;44.33;7.40;;;;;;;44.47;39.65;162952.64;1766032;80;21301;-85
2021/06/22 09:47:19;;;;;;;48.35;6.87;;;;;;;44.49;39.34;162958.03;1730467;81;21358;-83
2021/06/22 09:49:51;;;;;;;36.33;6.17;;;;;;;44.54;39.20;162970.12;1698002;82;21273;-85
2021/06/22 09:52:27;;;;;;;51.58;7.53;;;;;;;44.64;39.03;162998.45;1746367;82;21749;-83
2021/06/22 09:54:59;;;;;;;40.28;6.12;;;;;;;44.61;38.82;162990.31;1735933;81;21362;-85
2021/06/22 09:57:32;;;;;;;50.17;6.47;;;;;;;44.63;38.51;162994.31;1751941;81;21271;-83
2021/06/22 10:00:10;;;;;;;31.02;7.05;;;;;;;44.71;38.30;163015.94;1729602;81;21413;-84
2021/06/22 10:02:51;;;;;;;40.43;7.45;;;;;;;44.71;38.12;163015.94;1736997;81;21696;-83
2021/06/22 10:05:23;;;;;;;39.03;6.67;;;;;;;44.75;37.87;163028.03;1756940;81;21307;-84
2021/06/22 10:08:01;;;;;;;30.20;6.67;;;;;;;44.73;37.66;163022.66;1759264;81;21211;-82
2021/06/22 10:10:39;;;;;;;37.15;6.12;;;;;;;44.88;37.43;163063.02;1757877;81;21374;-84
2021/06/22 10:13:13;;;;;;;37.95;7.55;;;;;;;45.03;37.16;163103.39;1739696;81;21357;-84
2021/06/22 10:15:45;;;;;;;39.15;6.35;;;;;;;45.06;37.08;163112.84;1742613;81;21164;-93
2021/06/22 10:18:17;;;;;;;34.48;6.30;;;;;;;45.04;37.05;163106.09;1757801;81;21263;-86
2021/06/22 10:20:50;;;;;;;40.05;6.70;;;;;;;45.01;36.97;163099.37;1731865;82;21346;-87
2021/06/22 10:23:22;;;;;;;35.73;7.22;;;;;;;45.07;36.80;163114.17;1729339;83;21370;-86
2021/06/22 10:25:54;;;;;;;40.00;6.90;;;;;;;45.10;36.86;163123.58;1741582;81;21354;-86
2021/06/22 10:28:27;;;;;;;42.03;6.70;;;;;;;45.17;36.77;163141.08;1757809;81;21374;-86
2021/06/22 10:30:59;;;;;;;30.45;6.62;;;;;;;45.28;36.52;163172.05;1729370;81;21916;-85
2021/06/22 10:33:32;;;;;;;49.40;7.60;;;;;;;45.45;36.29;163216.50;1729345;83;21283;-84
2021/06/22 10:36:05;;;;;;;44.33;8.23;;;;;;;45.52;36.12;163235.33;1736939;81;21408;-83
2021/06/22 10:38:40;;;;;;;44.90;6.33;;;;;;;45.36;36.21;163192.25;1762951;79;21306;-83
2021/06/22 10:41:12;;;;;;;39.03;6.65;;;;;;;45.38;36.29;163199.00;1767739;79;21899;-85
2021/06/22 10:43:47;;;;;;;35.95;6.80;;;;;;;45.36;36.35;163193.56;1772346;79;21180;-84
2021/06/22 10:46:21;;;;;;;30.72;5.22;;;;;;;45.44;36.12;163215.13;1750734;81;21169;-85
2021/06/22 10:48:57;;;;;;;38.90;6.40;;;;;;;45.50;36.23;163231.31;1740062;81;21203;-84
2021/06/22 10:51:46;;;;;;;50.00;8.25;;;;;;;45.58;36.18;163252.81;1739398;82;21246;-84
2021/06/22 10:54:54;;;;;;;47.30;7.87;;;;;;;45.67;36.03;163277.03;1721271;83;21882;-85
2021/06/22 10:58:08;;;;;;;34.18;6.00;;;;;;;45.71;36.03;163287.83;1749808;81;21644;-85
2021/06/22 11:00:51;;;;;;;42.62;7.22;;;;;;;45.79;35.76;163309.39;1741101;81;21318;-86
2021/06/22 11:03:33;;;;;;;39.90;7.28;;;;;;;45.81;35.65;163313.47;1739480;82;21343;-84
2021/06/22 11:06:17;;;;;;;39.90;6.35;;;;;;;45.83;35.51;163321.56;1739608;81;21232;-84
2021/06/22 11:08:50;;;;;;;48.15;7.58;;;;;;;45.88;35.45;163334.98;1741458;81;21338;-83
2021/06/22 11:11:25;;;;;;;44.42;7.15;;;;;;;45.91;35.34;163343.08;1751553;81;21528;-83
2021/06/22 11:13:59;;;;;;;42.80;8.98;;;;;;;45.92;35.40;163345.77;1743642;80;21294;-84
2021/06/22 11:16:33;;;;;;;33.88;6.70;;;;;;;46.02;35.29;163372.69;1739733;81;21335;-84
2021/06/22 11:19:09;;;;;;;47.08;7.70;;;;;;;45.96;35.31;163356.50;1739397;82;21355;-86
2021/06/22 11:21:51;;;;;;;49.70;8.40;;;;;;;46.09;34.93;163391.50;1753276;81;21291;-85
2021/06/22 11:24:26;;;;;;;42.85;7.37;;;;;;;46.13;34.37;163402.34;1739843;81;21354;-83
2021/06/22 11:27:02;;;;;;;46.90;7.67;;;;;;;46.20;34.30;163419.86;1739829;81;21720;-84
2021/06/22 11:29:42;;;;;;;49.58;7.45;;;;;;;46.21;34.06;163423.88;1766296;81;21234;-84
2021/06/22 11:32:32;;;;;;;47.30;7.37;;;;;;;46.27;34.20;163438.69;1769425;81;21278;-85
2021/06/22 11:35:04;;;;;;;;;;;;;;;46.25;34.04;163434.66;1741882;82;21335;-84
2021/06/22 11:37:36;;;;;;;42.03;8.50;;;;;;;46.33;34.01;163456.19;1739610;81;20320;-83
2021/06/22 11:40:12;;;;;;;45.03;6.70;;;;;;;46.34;33.85;163457.56;1752437;80;21185;-84
2021/06/22 11:42:45;;;;;;;50.23;7.42;;;;;;;46.30;34.01;163446.78;1714042;82;21260;-84
2021/06/22 11:45:19;;;;;;;40.28;6.85;;;;;;;46.37;34.02;163465.59;1705886;82;21879;-85
2021/06/22 11:47:54;;;;;;;39.80;8.43;;;;;;;46.36;33.95;163462.91;1716648;82;21224;-84
2021/06/22 11:50:28;;;;;;;39.30;7.42;;;;;;;46.44;33.87;163484.48;1714177;82;21185;-82
2021/06/22 11:53:04;;;;;;;40.50;6.28;;;;;;;46.44;33.90;163485.81;1716146;83;21202;-85
2021/06/22 11:55:42;;;;;;;45.20;7.37;;;;;;;46.52;33.97;163507.44;1713722;82;21335;-84
2021/06/22 11:58:20;;;;;;;41.33;7.65;;;;;;;46.57;33.96;163520.88;1712222;82;21279;-85